sensor_id;sensor_type;location;lat;lon;timestamp;pressure;altitude;pressure_sealevel;temperature;humidity
73105;BME280;61296;50.526;30.792;2023-04-21T00:13:06;98966.41;;;6.43;74.62
73105;BME280;61296;50.526;30.792;2023-04-21T00:28:25;99067.91;;;6.83;75.55
73105;BME280;61296;50.526;30.792;2023-04-21T00:59:20;98992.66;;;6.08;76.49
73105;BME280;61296;50.526;30.792;2023-04-21T01:14:40;98940.16;;;5.80;76.73
73105;BME280;61296;50.526;30.792;2023-04-21T01:29:59;98925.81;;;5.64;77.17
73105;BME280;61296;50.526;30.792;2023-04-21T01:45:19;99044.47;;;6.63;76.73
73105;BME280;61296;50.526;30.792;2023-04-21T02:00:39;98986.25;;;6.20;76.55
73105;BME280;61296;50.526;30.792;2023-04-21T02:15:58;98939.84;;;6.01;76.36
73105;BME280;61296;50.526;30.792;2023-04-21T02:31:18;98998.97;;;6.51;76.24
73105;BME280;61296;50.526;30.792;2023-04-21T02:46:40;98880.06;;;5.76;76.56
73105;BME280;61296;50.526;30.792;2023-04-21T03:02:00;99040.31;;;6.69;76.82
73105;BME280;61296;50.526;30.792;2023-04-21T03:17:19;99037.66;;;6.53;77.75
73105;BME280;61296;50.526;30.792;2023-04-21T03:32:41;98949.66;;;5.51;80.08
73105;BME280;61296;50.526;30.792;2023-04-21T03:48:04;99040.56;;;6.06;81.25
73105;BME280;61296;50.526;30.792;2023-04-21T04:03:23;99039.59;;;6.33;81.45
73105;BME280;61296;50.526;30.792;2023-04-21T04:18:43;98908.06;;;5.54;81.08
73105;BME280;61296;50.526;30.792;2023-04-21T04:50:07;98885.69;;;5.84;79.21
73105;BME280;61296;50.526;30.792;2023-04-21T05:05:27;98992.69;;;6.70;77.10
73105;BME280;61296;50.526;30.792;2023-04-21T05:20:46;99068.31;;;7.28;76.48
73105;BME280;61296;50.526;30.792;2023-04-21T05:36:06;98959.78;;;7.09;74.08
73105;BME280;61296;50.526;30.792;2023-04-21T05:51:27;99048.75;;;8.31;72.33
73105;BME280;61296;50.526;30.792;2023-04-21T06:06:48;98997.38;;;8.21;71.65
73105;BME280;61296;50.526;30.792;2023-04-21T06:22:07;98892.66;;;7.68;71.33
73105;BME280;61296;50.526;30.792;2023-04-21T06:37:27;99065.00;;;9.55;66.98
73105;BME280;61296;50.526;30.792;2023-04-21T06:52:46;99004.59;;;9.55;65.17
73105;BME280;61296;50.526;30.792;2023-04-21T07:08:06;99085.16;;;10.25;63.53
73105;BME280;61296;50.526;30.792;2023-04-21T07:23:25;98954.78;;;9.49;59.74
73105;BME280;61296;50.526;30.792;2023-04-21T07:38:46;99073.94;;;10.62;58.50
73105;BME280;61296;50.526;30.792;2023-04-21T07:54:05;98942.38;;;9.77;57.37
73105;BME280;61296;50.526;30.792;2023-04-21T08:09:25;98943.88;;;9.60;57.10
73105;BME280;61296;50.526;30.792;2023-04-21T08:24:44;99117.41;;;10.35;58.87
73105;BME280;61296;50.526;30.792;2023-04-21T08:40:05;99141.81;;;10.47;60.35
73105;BME280;61296;50.526;30.792;2023-04-21T08:55:29;99102.09;;;10.37;61.47
73105;BME280;61296;50.526;30.792;2023-04-21T09:10:50;98975.59;;;9.54;63.32
73105;BME280;61296;50.526;30.792;2023-04-21T09:26:13;99186.84;;;10.28;64.69
73105;BME280;61296;50.526;30.792;2023-04-21T09:41:33;99097.78;;;9.81;63.90
73105;BME280;61296;50.526;30.792;2023-04-21T09:56:54;99019.53;;;9.10;65.87
73105;BME280;61296;50.526;30.792;2023-04-21T10:12:16;99126.97;;;9.56;66.30
73105;BME280;61296;50.526;30.792;2023-04-21T10:27:40;98986.91;;;9.01;64.46
73105;BME280;61296;50.526;30.792;2023-04-21T10:43:02;99185.88;;;10.58;63.13
73105;BME280;61296;50.526;30.792;2023-04-21T10:58:22;99089.88;;;10.28;62.96
73105;BME280;61296;50.526;30.792;2023-04-21T11:13:42;99028.66;;;10.38;58.44
73105;BME280;61296;50.526;30.792;2023-04-21T11:29:06;99132.78;;;11.51;58.10
73105;BME280;61296;50.526;30.792;2023-04-21T11:44:53;99025.34;;;11.05;57.02
73105;BME280;61296;50.526;30.792;2023-04-21T12:00:14;98979.72;;;10.79;57.26
73105;BME280;61296;50.526;30.792;2023-04-21T12:15:33;98989.97;;;11.18;57.01
73105;BME280;61296;50.526;30.792;2023-04-21T12:30:53;98922.31;;;11.49;55.44
73105;BME280;61296;50.526;30.792;2023-04-21T12:46:16;98998.56;;;11.98;53.79
73105;BME280;61296;50.526;30.792;2023-04-21T13:01:39;98956.38;;;12.19;52.38
73105;BME280;61296;50.526;30.792;2023-04-21T13:17:00;99048.50;;;13.16;50.68
73105;BME280;61296;50.526;30.792;2023-04-21T13:32:20;98931.03;;;12.53;50.37
73105;BME280;61296;50.526;30.792;2023-04-21T13:47:39;98956.44;;;12.85;49.26
73105;BME280;61296;50.526;30.792;2023-04-21T14:02:59;98977.63;;;13.03;48.38
73105;BME280;61296;50.526;30.792;2023-04-21T14:18:19;98885.25;;;12.62;47.36
73105;BME280;61296;50.526;30.792;2023-04-21T14:33:40;98931.66;;;12.78;48.42
73105;BME280;61296;50.526;30.792;2023-04-21T14:48:59;98971.78;;;12.93;56.03
73105;BME280;61296;50.526;30.792;2023-04-21T15:04:19;98959.34;;;12.60;59.13
73105;BME280;61296;50.526;30.792;2023-04-21T15:19:38;98969.28;;;12.40;58.53
73105;BME280;61296;50.526;30.792;2023-04-21T15:35:00;99001.69;;;12.22;60.58
73105;BME280;61296;50.526;30.792;2023-04-21T15:50:21;99004.53;;;11.90;66.10
73105;BME280;61296;50.526;30.792;2023-04-21T16:05:41;98988.78;;;11.90;66.91
73105;BME280;61296;50.526;30.792;2023-04-21T16:21:00;98867.72;;;10.90;67.17
73105;BME280;61296;50.526;30.792;2023-04-21T16:36:20;98927.06;;;11.02;68.84
73105;BME280;61296;50.526;30.792;2023-04-21T16:51:40;98879.47;;;10.34;69.21
73105;BME280;61296;50.526;30.792;2023-04-21T17:07:05;98972.19;;;10.58;69.17
73105;BME280;61296;50.526;30.792;2023-04-21T17:22:25;99002.84;;;10.60;69.84
73105;BME280;61296;50.526;30.792;2023-04-21T17:38:19;99051.25;;;10.93;70.27
73105;BME280;61296;50.526;30.792;2023-04-21T17:53:39;99004.78;;;10.56;70.09
73105;BME280;61296;50.526;30.792;2023-04-21T18:09:00;98891.72;;;9.64;69.72
73105;BME280;61296;50.526;30.792;2023-04-21T18:24:19;98980.25;;;10.19;69.82
73105;BME280;61296;50.526;30.792;2023-04-21T18:39:39;98899.13;;;9.52;70.61
73105;BME280;61296;50.526;30.792;2023-04-21T18:54:59;99029.47;;;10.38;72.04
73105;BME280;61296;50.526;30.792;2023-04-21T19:10:18;98831.38;;;9.05;72.89
73105;BME280;61296;50.526;30.792;2023-04-21T19:25:38;98916.00;;;9.58;73.03
73105;BME280;61296;50.526;30.792;2023-04-21T19:40:57;98860.50;;;9.20;72.44
73105;BME280;61296;50.526;30.792;2023-04-21T19:56:18;98869.91;;;9.19;71.44
73105;BME280;61296;50.526;30.792;2023-04-21T20:11:38;98788.06;;;8.66;71.12
73105;BME280;61296;50.526;30.792;2023-04-21T20:26:57;98811.66;;;8.82;71.01
73105;BME280;61296;50.526;30.792;2023-04-21T20:42:20;98932.97;;;9.74;71.75
73105;BME280;61296;50.526;30.792;2023-04-21T20:57:40;98878.72;;;9.50;72.12
73105;BME280;61296;50.526;30.792;2023-04-21T21:13:03;98897.94;;;9.50;73.53
73105;BME280;61296;50.526;30.792;2023-04-21T21:28:23;98930.09;;;9.57;75.50
73105;BME280;61296;50.526;30.792;2023-04-21T21:43:42;98853.63;;;8.93;76.76
73105;BME280;61296;50.526;30.792;2023-04-21T21:59:05;98753.25;;;8.26;76.03
73105;BME280;61296;50.526;30.792;2023-04-21T22:14:25;98923.16;;;9.15;74.77
73105;BME280;61296;50.526;30.792;2023-04-21T22:29:47;98935.41;;;9.28;75.29
73105;BME280;61296;50.526;30.792;2023-04-21T22:45:07;98848.22;;;8.52;75.94
73105;BME280;61296;50.526;30.792;2023-04-21T23:00:26;98839.94;;;8.45;75.74
73105;BME280;61296;50.526;30.792;2023-04-21T23:15:51;98757.47;;;7.76;75.64
73105;BME280;61296;50.526;30.792;2023-04-21T23:31:12;98753.72;;;7.54;76.84
73105;BME280;61296;50.526;30.792;2023-04-21T23:46:31;98742.94;;;7.35;77.87
